sensor_id;sensor_type;location;lat;lon;timestamp;P1;durP1;ratioP1;P2;durP2;ratioP2
66272;SDS011;58450;52.150;4.466;2023-11-19T00:01:29;25.33;;;4.53;;
66272;SDS011;58450;52.150;4.466;2023-11-19T00:03:56;31.15;;;5.15;;
66272;SDS011;58450;52.150;4.466;2023-11-19T00:06:23;31.42;;;5.47;;
66272;SDS011;58450;52.150;4.466;2023-11-19T00:08:51;28.13;;;5.70;;
66272;SDS011;58450;52.150;4.466;2023-11-19T00:11:18;27.60;;;4.85;;
66272;SDS011;58450;52.150;4.466;2023-11-19T00:13:45;31.13;;;6.03;;
66272;SDS011;58450;52.150;4.466;2023-11-19T00:16:12;30.27;;;5.13;;
66272;SDS011;58450;52.150;4.466;2023-11-19T00:18:41;32.10;;;5.68;;
66272;SDS011;58450;52.150;4.466;2023-11-19T00:21:09;30.30;;;5.53;;
66272;SDS011;58450;52.150;4.466;2023-11-19T00:23:36;41.35;;;6.13;;
66272;SDS011;58450;52.150;4.466;2023-11-19T00:26:04;34.15;;;6.40;;
66272;SDS011;58450;52.150;4.466;2023-11-19T00:28:31;29.55;;;5.43;;
66272;SDS011;58450;52.150;4.466;2023-11-19T00:30:59;28.35;;;5.70;;
66272;SDS011;58450;52.150;4.466;2023-11-19T00:33:26;33.65;;;5.60;;
66272;SDS011;58450;52.150;4.466;2023-11-19T00:35:55;34.33;;;6.00;;
66272;SDS011;58450;52.150;4.466;2023-11-19T00:38:23;35.13;;;5.70;;
66272;SDS011;58450;52.150;4.466;2023-11-19T00:40:50;34.42;;;6.10;;
66272;SDS011;58450;52.150;4.466;2023-11-19T00:43:17;34.58;;;5.95;;
66272;SDS011;58450;52.150;4.466;2023-11-19T00:45:47;35.45;;;6.38;;
66272;SDS011;58450;52.150;4.466;2023-11-19T00:48:16;37.20;;;6.35;;
66272;SDS011;58450;52.150;4.466;2023-11-19T00:50:43;34.72;;;6.03;;
66272;SDS011;58450;52.150;4.466;2023-11-19T00:53:13;34.25;;;5.95;;
66272;SDS011;58450;52.150;4.466;2023-11-19T00:55:40;35.60;;;6.22;;
66272;SDS011;58450;52.150;4.466;2023-11-19T00:58:07;32.92;;;6.82;;
66272;SDS011;58450;52.150;4.466;2023-11-19T01:00:34;41.50;;;6.72;;
66272;SDS011;58450;52.150;4.466;2023-11-19T01:03:02;35.55;;;6.05;;
66272;SDS011;58450;52.150;4.466;2023-11-19T01:05:29;42.03;;;6.35;;
66272;SDS011;58450;52.150;4.466;2023-11-19T01:07:56;32.88;;;7.03;;
66272;SDS011;58450;52.150;4.466;2023-11-19T01:10:24;36.95;;;5.82;;
66272;SDS011;58450;52.150;4.466;2023-11-19T01:12:52;36.83;;;6.97;;
66272;SDS011;58450;52.150;4.466;2023-11-19T01:15:19;38.47;;;6.22;;
66272;SDS011;58450;52.150;4.466;2023-11-19T01:17:46;40.15;;;6.50;;
66272;SDS011;58450;52.150;4.466;2023-11-19T01:20:13;39.17;;;6.68;;
66272;SDS011;58450;52.150;4.466;2023-11-19T01:22:41;33.45;;;6.10;;
66272;SDS011;58450;52.150;4.466;2023-11-19T01:25:09;37.25;;;6.20;;
66272;SDS011;58450;52.150;4.466;2023-11-19T01:27:37;39.00;;;6.93;;
66272;SDS011;58450;52.150;4.466;2023-11-19T01:30:06;36.22;;;6.80;;
66272;SDS011;58450;52.150;4.466;2023-11-19T01:32:35;32.88;;;6.75;;
66272;SDS011;58450;52.150;4.466;2023-11-19T01:35:03;37.40;;;6.80;;
66272;SDS011;58450;52.150;4.466;2023-11-19T01:37:31;29.30;;;6.35;;
66272;SDS011;58450;52.150;4.466;2023-11-19T01:40:00;32.38;;;6.38;;
66272;SDS011;58450;52.150;4.466;2023-11-19T01:42:28;35.33;;;6.05;;
66272;SDS011;58450;52.150;4.466;2023-11-19T01:44:59;36.00;;;6.50;;
66272;SDS011;58450;52.150;4.466;2023-11-19T01:47:27;39.25;;;7.18;;
66272;SDS011;58450;52.150;4.466;2023-11-19T01:49:56;33.22;;;5.53;;
66272;SDS011;58450;52.150;4.466;2023-11-19T01:52:25;37.67;;;6.13;;
66272;SDS011;58450;52.150;4.466;2023-11-19T01:54:53;36.20;;;6.72;;
66272;SDS011;58450;52.150;4.466;2023-11-19T01:57:21;38.13;;;5.80;;
66272;SDS011;58450;52.150;4.466;2023-11-19T01:59:49;35.95;;;7.05;;
66272;SDS011;58450;52.150;4.466;2023-11-19T02:02:19;28.48;;;6.30;;
66272;SDS011;58450;52.150;4.466;2023-11-19T02:07:16;42.50;;;7.32;;
66272;SDS011;58450;52.150;4.466;2023-11-19T02:09:43;38.15;;;7.05;;
66272;SDS011;58450;52.150;4.466;2023-11-19T02:12:11;35.70;;;6.95;;
66272;SDS011;58450;52.150;4.466;2023-11-19T02:14:38;37.67;;;7.30;;
66272;SDS011;58450;52.150;4.466;2023-11-19T02:17:06;48.00;;;7.30;;
66272;SDS011;58450;52.150;4.466;2023-11-19T02:19:35;41.60;;;6.20;;
66272;SDS011;58450;52.150;4.466;2023-11-19T02:22:03;39.55;;;6.13;;
66272;SDS011;58450;52.150;4.466;2023-11-19T02:24:30;40.72;;;7.90;;
66272;SDS011;58450;52.150;4.466;2023-11-19T02:27:02;41.95;;;6.55;;
66272;SDS011;58450;52.150;4.466;2023-11-19T02:29:36;40.22;;;7.03;;
66272;SDS011;58450;52.150;4.466;2023-11-19T02:32:04;39.17;;;6.80;;
66272;SDS011;58450;52.150;4.466;2023-11-19T02:34:35;41.88;;;6.80;;
66272;SDS011;58450;52.150;4.466;2023-11-19T02:37:02;38.03;;;6.65;;
66272;SDS011;58450;52.150;4.466;2023-11-19T02:39:31;37.90;;;7.10;;
66272;SDS011;58450;52.150;4.466;2023-11-19T02:41:58;36.70;;;6.93;;
66272;SDS011;58450;52.150;4.466;2023-11-19T02:44:25;35.05;;;5.72;;
66272;SDS011;58450;52.150;4.466;2023-11-19T02:46:55;42.60;;;7.43;;
66272;SDS011;58450;52.150;4.466;2023-11-19T02:49:25;43.67;;;7.55;;
66272;SDS011;58450;52.150;4.466;2023-11-19T02:51:52;42.58;;;7.07;;
66272;SDS011;58450;52.150;4.466;2023-11-19T02:54:19;41.63;;;7.10;;
66272;SDS011;58450;52.150;4.466;2023-11-19T02:56:52;33.45;;;6.18;;
66272;SDS011;58450;52.150;4.466;2023-11-19T02:59:25;39.47;;;7.07;;
66272;SDS011;58450;52.150;4.466;2023-11-19T03:01:55;38.58;;;6.28;;
66272;SDS011;58450;52.150;4.466;2023-11-19T03:04:22;39.88;;;6.45;;
66272;SDS011;58450;52.150;4.466;2023-11-19T03:06:49;42.40;;;7.35;;
66272;SDS011;58450;52.150;4.466;2023-11-19T03:09:18;36.42;;;7.05;;
66272;SDS011;58450;52.150;4.466;2023-11-19T03:11:45;45.28;;;7.07;;
66272;SDS011;58450;52.150;4.466;2023-11-19T03:14:13;39.40;;;6.75;;
66272;SDS011;58450;52.150;4.466;2023-11-19T03:16:40;46.38;;;8.15;;
66272;SDS011;58450;52.150;4.466;2023-11-19T03:19:08;39.83;;;7.22;;
66272;SDS011;58450;52.150;4.466;2023-11-19T03:21:35;39.17;;;7.30;;
66272;SDS011;58450;52.150;4.466;2023-11-19T03:24:03;44.03;;;7.30;;
66272;SDS011;58450;52.150;4.466;2023-11-19T03:26:30;39.20;;;6.97;;
66272;SDS011;58450;52.150;4.466;2023-11-19T03:28:59;38.08;;;6.63;;
66272;SDS011;58450;52.150;4.466;2023-11-19T03:31:27;41.78;;;7.05;;
66272;SDS011;58450;52.150;4.466;2023-11-19T03:33:54;43.97;;;7.85;;
66272;SDS011;58450;52.150;4.466;2023-11-19T03:36:23;44.72;;;8.18;;
66272;SDS011;58450;52.150;4.466;2023-11-19T03:38:50;42.70;;;7.45;;
66272;SDS011;58450;52.150;4.466;2023-11-19T03:41:18;43.10;;;7.28;;
66272;SDS011;58450;52.150;4.466;2023-11-19T03:43:45;36.33;;;7.15;;
66272;SDS011;58450;52.150;4.466;2023-11-19T03:46:16;37.20;;;6.47;;
66272;SDS011;58450;52.150;4.466;2023-11-19T03:48:44;46.90;;;6.30;;
66272;SDS011;58450;52.150;4.466;2023-11-19T03:51:12;37.33;;;6.70;;
66272;SDS011;58450;52.150;4.466;2023-11-19T03:53:42;43.35;;;7.80;;
66272;SDS011;58450;52.150;4.466;2023-11-19T03:56:10;46.58;;;6.70;;
66272;SDS011;58450;52.150;4.466;2023-11-19T03:58:37;40.88;;;5.80;;
66272;SDS011;58450;52.150;4.466;2023-11-19T04:01:05;40.70;;;7.03;;
66272;SDS011;58450;52.150;4.466;2023-11-19T04:03:32;44.58;;;7.65;;
66272;SDS011;58450;52.150;4.466;2023-11-19T04:05:59;36.92;;;6.40;;
66272;SDS011;58450;52.150;4.466;2023-11-19T04:08:26;41.78;;;7.30;;
66272;SDS011;58450;52.150;4.466;2023-11-19T04:10:55;33.25;;;6.25;;
66272;SDS011;58450;52.150;4.466;2023-11-19T04:13:22;42.05;;;7.35;;
66272;SDS011;58450;52.150;4.466;2023-11-19T04:15:50;40.38;;;7.50;;
66272;SDS011;58450;52.150;4.466;2023-11-19T04:18:17;36.17;;;7.03;;
66272;SDS011;58450;52.150;4.466;2023-11-19T04:20:44;37.92;;;6.60;;
66272;SDS011;58450;52.150;4.466;2023-11-19T04:23:11;38.28;;;6.40;;
66272;SDS011;58450;52.150;4.466;2023-11-19T04:25:38;42.92;;;6.32;;
66272;SDS011;58450;52.150;4.466;2023-11-19T04:28:07;38.53;;;6.05;;
66272;SDS011;58450;52.150;4.466;2023-11-19T04:30:34;40.78;;;7.13;;
66272;SDS011;58450;52.150;4.466;2023-11-19T04:33:03;34.75;;;6.00;;
66272;SDS011;58450;52.150;4.466;2023-11-19T04:35:31;35.67;;;6.72;;
66272;SDS011;58450;52.150;4.466;2023-11-19T04:37:58;34.30;;;6.53;;
66272;SDS011;58450;52.150;4.466;2023-11-19T04:40:25;32.63;;;5.97;;
66272;SDS011;58450;52.150;4.466;2023-11-19T04:42:52;33.55;;;6.50;;
66272;SDS011;58450;52.150;4.466;2023-11-19T04:45:21;37.63;;;5.95;;
66272;SDS011;58450;52.150;4.466;2023-11-19T04:47:48;42.13;;;6.85;;
66272;SDS011;58450;52.150;4.466;2023-11-19T04:50:15;28.38;;;5.15;;
66272;SDS011;58450;52.150;4.466;2023-11-19T04:52:42;34.55;;;6.40;;
66272;SDS011;58450;52.150;4.466;2023-11-19T04:55:10;41.13;;;6.07;;
66272;SDS011;58450;52.150;4.466;2023-11-19T04:57:40;37.35;;;7.25;;
66272;SDS011;58450;52.150;4.466;2023-11-19T05:00:07;43.15;;;6.78;;
66272;SDS011;58450;52.150;4.466;2023-11-19T05:02:38;38.15;;;6.03;;
66272;SDS011;58450;52.150;4.466;2023-11-19T05:05:05;33.67;;;5.53;;
66272;SDS011;58450;52.150;4.466;2023-11-19T05:07:33;28.55;;;6.15;;
66272;SDS011;58450;52.150;4.466;2023-11-19T05:10:00;34.60;;;5.43;;
66272;SDS011;58450;52.150;4.466;2023-11-19T05:12:29;32.72;;;5.45;;
66272;SDS011;58450;52.150;4.466;2023-11-19T05:14:57;34.13;;;6.15;;
66272;SDS011;58450;52.150;4.466;2023-11-19T05:17:24;35.05;;;6.10;;
66272;SDS011;58450;52.150;4.466;2023-11-19T05:19:52;31.45;;;5.63;;
66272;SDS011;58450;52.150;4.466;2023-11-19T05:22:19;38.45;;;5.80;;
66272;SDS011;58450;52.150;4.466;2023-11-19T05:24:47;36.67;;;6.20;;
66272;SDS011;58450;52.150;4.466;2023-11-19T05:27:15;36.15;;;5.47;;
66272;SDS011;58450;52.150;4.466;2023-11-19T05:29:42;39.85;;;6.20;;
66272;SDS011;58450;52.150;4.466;2023-11-19T05:32:09;42.92;;;6.18;;
66272;SDS011;58450;52.150;4.466;2023-11-19T05:34:37;36.28;;;6.15;;
66272;SDS011;58450;52.150;4.466;2023-11-19T05:37:05;43.67;;;6.80;;
66272;SDS011;58450;52.150;4.466;2023-11-19T05:39:32;39.22;;;6.32;;
66272;SDS011;58450;52.150;4.466;2023-11-19T05:41:59;35.83;;;5.75;;
66272;SDS011;58450;52.150;4.466;2023-11-19T05:44:27;34.17;;;5.68;;
66272;SDS011;58450;52.150;4.466;2023-11-19T05:46:54;35.67;;;6.03;;
66272;SDS011;58450;52.150;4.466;2023-11-19T05:49:21;37.55;;;6.32;;
66272;SDS011;58450;52.150;4.466;2023-11-19T05:51:48;37.72;;;6.10;;
66272;SDS011;58450;52.150;4.466;2023-11-19T05:54:16;36.13;;;6.22;;
66272;SDS011;58450;52.150;4.466;2023-11-19T05:56:47;37.78;;;5.93;;
66272;SDS011;58450;52.150;4.466;2023-11-19T05:59:14;37.08;;;6.03;;
66272;SDS011;58450;52.150;4.466;2023-11-19T06:01:43;38.67;;;6.00;;
66272;SDS011;58450;52.150;4.466;2023-11-19T06:04:10;34.35;;;6.22;;
66272;SDS011;58450;52.150;4.466;2023-11-19T06:06:37;35.15;;;5.68;;
66272;SDS011;58450;52.150;4.466;2023-11-19T06:09:06;38.55;;;6.15;;
66272;SDS011;58450;52.150;4.466;2023-11-19T06:11:34;26.60;;;5.53;;
66272;SDS011;58450;52.150;4.466;2023-11-19T06:14:01;33.60;;;5.82;;
66272;SDS011;58450;52.150;4.466;2023-11-19T06:16:31;34.85;;;5.57;;
66272;SDS011;58450;52.150;4.466;2023-11-19T06:18:58;31.65;;;5.43;;
66272;SDS011;58450;52.150;4.466;2023-11-19T06:21:25;35.00;;;6.03;;
66272;SDS011;58450;52.150;4.466;2023-11-19T06:23:52;36.20;;;5.93;;
66272;SDS011;58450;52.150;4.466;2023-11-19T06:26:20;34.47;;;5.05;;
66272;SDS011;58450;52.150;4.466;2023-11-19T06:28:49;39.20;;;6.20;;
66272;SDS011;58450;52.150;4.466;2023-11-19T06:31:16;43.65;;;6.28;;
66272;SDS011;58450;52.150;4.466;2023-11-19T06:33:43;39.78;;;6.57;;
66272;SDS011;58450;52.150;4.466;2023-11-19T06:36:10;32.83;;;6.57;;
66272;SDS011;58450;52.150;4.466;2023-11-19T06:38:41;36.70;;;6.50;;
66272;SDS011;58450;52.150;4.466;2023-11-19T06:41:09;36.55;;;6.78;;
66272;SDS011;58450;52.150;4.466;2023-11-19T06:43:36;43.60;;;6.65;;
66272;SDS011;58450;52.150;4.466;2023-11-19T06:46:05;40.17;;;6.10;;
66272;SDS011;58450;52.150;4.466;2023-11-19T06:48:32;42.92;;;6.35;;
66272;SDS011;58450;52.150;4.466;2023-11-19T06:50:59;34.35;;;6.32;;
66272;SDS011;58450;52.150;4.466;2023-11-19T06:53:27;40.15;;;6.50;;
66272;SDS011;58450;52.150;4.466;2023-11-19T06:55:54;39.00;;;6.13;;
66272;SDS011;58450;52.150;4.466;2023-11-19T06:58:22;38.75;;;6.80;;
66272;SDS011;58450;52.150;4.466;2023-11-19T07:00:49;32.40;;;5.95;;
66272;SDS011;58450;52.150;4.466;2023-11-19T07:03:18;35.53;;;5.82;;
66272;SDS011;58450;52.150;4.466;2023-11-19T07:05:46;37.05;;;6.05;;
66272;SDS011;58450;52.150;4.466;2023-11-19T07:08:13;34.88;;;6.07;;
66272;SDS011;58450;52.150;4.466;2023-11-19T07:10:40;34.50;;;5.90;;
66272;SDS011;58450;52.150;4.466;2023-11-19T07:13:07;33.85;;;6.25;;
66272;SDS011;58450;52.150;4.466;2023-11-19T07:15:35;32.22;;;6.22;;
66272;SDS011;58450;52.150;4.466;2023-11-19T07:18:03;35.40;;;5.15;;
66272;SDS011;58450;52.150;4.466;2023-11-19T07:20:32;37.67;;;6.78;;
66272;SDS011;58450;52.150;4.466;2023-11-19T07:22:59;34.05;;;6.30;;
66272;SDS011;58450;52.150;4.466;2023-11-19T07:25:26;35.03;;;6.03;;
66272;SDS011;58450;52.150;4.466;2023-11-19T07:27:53;34.97;;;5.88;;
66272;SDS011;58450;52.150;4.466;2023-11-19T07:30:20;40.80;;;6.38;;
66272;SDS011;58450;52.150;4.466;2023-11-19T07:32:48;39.63;;;5.80;;
66272;SDS011;58450;52.150;4.466;2023-11-19T07:35:15;32.30;;;6.25;;
66272;SDS011;58450;52.150;4.466;2023-11-19T07:37:43;32.80;;;5.43;;
66272;SDS011;58450;52.150;4.466;2023-11-19T07:40:11;40.55;;;5.63;;
66272;SDS011;58450;52.150;4.466;2023-11-19T07:42:39;34.05;;;5.72;;
66272;SDS011;58450;52.150;4.466;2023-11-19T07:45:06;30.42;;;5.78;;
66272;SDS011;58450;52.150;4.466;2023-11-19T07:47:34;43.90;;;6.45;;
66272;SDS011;58450;52.150;4.466;2023-11-19T07:50:01;35.08;;;6.22;;
66272;SDS011;58450;52.150;4.466;2023-11-19T07:52:29;33.17;;;5.70;;
66272;SDS011;58450;52.150;4.466;2023-11-19T07:54:57;35.08;;;5.88;;
66272;SDS011;58450;52.150;4.466;2023-11-19T07:57:25;31.65;;;5.90;;
66272;SDS011;58450;52.150;4.466;2023-11-19T07:59:56;30.88;;;5.30;;
66272;SDS011;58450;52.150;4.466;2023-11-19T08:02:23;33.55;;;5.18;;
66272;SDS011;58450;52.150;4.466;2023-11-19T08:04:50;26.30;;;5.10;;
66272;SDS011;58450;52.150;4.466;2023-11-19T08:07:20;29.55;;;5.68;;
66272;SDS011;58450;52.150;4.466;2023-11-19T08:09:47;27.05;;;5.18;;
66272;SDS011;58450;52.150;4.466;2023-11-19T08:12:16;25.08;;;4.93;;
66272;SDS011;58450;52.150;4.466;2023-11-19T08:14:43;33.53;;;5.15;;
66272;SDS011;58450;52.150;4.466;2023-11-19T08:17:10;30.85;;;5.90;;
66272;SDS011;58450;52.150;4.466;2023-11-19T08:19:37;37.25;;;5.70;;
66272;SDS011;58450;52.150;4.466;2023-11-19T08:22:05;31.80;;;5.55;;
66272;SDS011;58450;52.150;4.466;2023-11-19T08:24:32;31.95;;;5.57;;
66272;SDS011;58450;52.150;4.466;2023-11-19T08:26:59;33.10;;;6.03;;
66272;SDS011;58450;52.150;4.466;2023-11-19T08:29:27;32.58;;;5.65;;
66272;SDS011;58450;52.150;4.466;2023-11-19T08:31:55;37.05;;;5.80;;
66272;SDS011;58450;52.150;4.466;2023-11-19T08:34:22;36.42;;;6.25;;
66272;SDS011;58450;52.150;4.466;2023-11-19T08:36:49;30.30;;;5.88;;
66272;SDS011;58450;52.150;4.466;2023-11-19T08:39:18;34.38;;;6.25;;
66272;SDS011;58450;52.150;4.466;2023-11-19T08:41:46;30.90;;;6.15;;
66272;SDS011;58450;52.150;4.466;2023-11-19T08:44:14;29.77;;;5.43;;
66272;SDS011;58450;52.150;4.466;2023-11-19T08:46:47;32.03;;;5.80;;
66272;SDS011;58450;52.150;4.466;2023-11-19T08:49:14;38.50;;;6.30;;
66272;SDS011;58450;52.150;4.466;2023-11-19T08:51:42;30.58;;;5.70;;
66272;SDS011;58450;52.150;4.466;2023-11-19T08:54:09;35.95;;;6.05;;
66272;SDS011;58450;52.150;4.466;2023-11-19T08:56:36;36.47;;;6.15;;
66272;SDS011;58450;52.150;4.466;2023-11-19T08:59:04;33.75;;;5.68;;
66272;SDS011;58450;52.150;4.466;2023-11-19T09:01:32;33.67;;;6.05;;
66272;SDS011;58450;52.150;4.466;2023-11-19T09:04:00;30.48;;;5.78;;
66272;SDS011;58450;52.150;4.466;2023-11-19T09:06:27;40.60;;;6.30;;
66272;SDS011;58450;52.150;4.466;2023-11-19T09:08:54;33.42;;;6.38;;
66272;SDS011;58450;52.150;4.466;2023-11-19T09:11:26;31.35;;;5.60;;
66272;SDS011;58450;52.150;4.466;2023-11-19T09:13:53;30.20;;;6.47;;
66272;SDS011;58450;52.150;4.466;2023-11-19T09:16:20;33.25;;;6.43;;
66272;SDS011;58450;52.150;4.466;2023-11-19T09:18:47;35.25;;;6.45;;
66272;SDS011;58450;52.150;4.466;2023-11-19T09:21:16;37.00;;;6.18;;
66272;SDS011;58450;52.150;4.466;2023-11-19T09:23:43;32.53;;;5.57;;
66272;SDS011;58450;52.150;4.466;2023-11-19T09:26:10;36.38;;;6.07;;
66272;SDS011;58450;52.150;4.466;2023-11-19T09:28:37;35.67;;;6.30;;
66272;SDS011;58450;52.150;4.466;2023-11-19T09:31:12;32.25;;;5.38;;
66272;SDS011;58450;52.150;4.466;2023-11-19T09:33:40;36.00;;;6.07;;
66272;SDS011;58450;52.150;4.466;2023-11-19T09:36:07;28.58;;;5.05;;
66272;SDS011;58450;52.150;4.466;2023-11-19T09:38:37;35.13;;;5.63;;
66272;SDS011;58450;52.150;4.466;2023-11-19T09:41:05;30.20;;;5.93;;
66272;SDS011;58450;52.150;4.466;2023-11-19T09:43:34;29.40;;;5.43;;
66272;SDS011;58450;52.150;4.466;2023-11-19T09:46:03;34.72;;;5.68;;
66272;SDS011;58450;52.150;4.466;2023-11-19T09:48:32;31.20;;;5.45;;
66272;SDS011;58450;52.150;4.466;2023-11-19T09:51:00;33.17;;;5.32;;
66272;SDS011;58450;52.150;4.466;2023-11-19T09:53:28;29.58;;;5.45;;
66272;SDS011;58450;52.150;4.466;2023-11-19T09:55:57;32.33;;;5.72;;
66272;SDS011;58450;52.150;4.466;2023-11-19T09:58:28;30.13;;;5.28;;
66272;SDS011;58450;52.150;4.466;2023-11-19T10:00:55;32.53;;;5.28;;
66272;SDS011;58450;52.150;4.466;2023-11-19T10:03:25;31.48;;;5.22;;
66272;SDS011;58450;52.150;4.466;2023-11-19T10:05:56;29.80;;;5.85;;
66272;SDS011;58450;52.150;4.466;2023-11-19T10:08:24;32.22;;;5.13;;
66272;SDS011;58450;52.150;4.466;2023-11-19T10:10:51;31.30;;;5.18;;
66272;SDS011;58450;52.150;4.466;2023-11-19T10:13:20;27.38;;;4.65;;
66272;SDS011;58450;52.150;4.466;2023-11-19T10:15:53;31.63;;;5.15;;
66272;SDS011;58450;52.150;4.466;2023-11-19T10:18:23;25.67;;;4.88;;
66272;SDS011;58450;52.150;4.466;2023-11-19T10:20:51;22.77;;;4.68;;
66272;SDS011;58450;52.150;4.466;2023-11-19T10:23:18;31.77;;;5.47;;
66272;SDS011;58450;52.150;4.466;2023-11-19T10:25:45;27.60;;;4.55;;
66272;SDS011;58450;52.150;4.466;2023-11-19T10:28:14;32.72;;;5.72;;
66272;SDS011;58450;52.150;4.466;2023-11-19T10:30:44;25.23;;;4.68;;
66272;SDS011;58450;52.150;4.466;2023-11-19T10:33:14;23.45;;;4.75;;
66272;SDS011;58450;52.150;4.466;2023-11-19T10:35:52;25.42;;;4.45;;
66272;SDS011;58450;52.150;4.466;2023-11-19T10:38:20;27.15;;;4.95;;
66272;SDS011;58450;52.150;4.466;2023-11-19T10:40:47;24.60;;;5.07;;
66272;SDS011;58450;52.150;4.466;2023-11-19T10:43:16;22.15;;;4.60;;
66272;SDS011;58450;52.150;4.466;2023-11-19T10:45:45;28.10;;;5.32;;
66272;SDS011;58450;52.150;4.466;2023-11-19T10:48:12;28.40;;;5.30;;
66272;SDS011;58450;52.150;4.466;2023-11-19T10:50:40;25.77;;;5.07;;
66272;SDS011;58450;52.150;4.466;2023-11-19T10:53:09;26.38;;;4.75;;
66272;SDS011;58450;52.150;4.466;2023-11-19T10:55:38;31.38;;;4.90;;
66272;SDS011;58450;52.150;4.466;2023-11-19T10:58:06;22.55;;;4.20;;
66272;SDS011;58450;52.150;4.466;2023-11-19T11:00:37;25.83;;;4.55;;
66272;SDS011;58450;52.150;4.466;2023-11-19T11:03:17;26.50;;;4.70;;
66272;SDS011;58450;52.150;4.466;2023-11-19T11:05:46;28.27;;;4.85;;
66272;SDS011;58450;52.150;4.466;2023-11-19T11:08:14;23.85;;;4.43;;
66272;SDS011;58450;52.150;4.466;2023-11-19T11:10:43;21.55;;;4.35;;
66272;SDS011;58450;52.150;4.466;2023-11-19T11:13:11;30.50;;;5.20;;
66272;SDS011;58450;52.150;4.466;2023-11-19T11:15:40;23.50;;;4.15;;
66272;SDS011;58450;52.150;4.466;2023-11-19T11:18:08;21.70;;;3.92;;
66272;SDS011;58450;52.150;4.466;2023-11-19T11:20:37;23.75;;;4.43;;
66272;SDS011;58450;52.150;4.466;2023-11-19T11:26:05;26.52;;;4.88;;
66272;SDS011;58450;52.150;4.466;2023-11-19T11:31:20;20.73;;;4.50;;
66272;SDS011;58450;52.150;4.466;2023-11-19T11:34:01;29.27;;;4.95;;
66272;SDS011;58450;52.150;4.466;2023-11-19T11:36:58;24.80;;;4.78;;
66272;SDS011;58450;52.150;4.466;2023-11-19T11:39:39;25.98;;;5.18;;
66272;SDS011;58450;52.150;4.466;2023-11-19T11:45:03;25.08;;;4.55;;
66272;SDS011;58450;52.150;4.466;2023-11-19T11:50:50;27.45;;;4.80;;
66272;SDS011;58450;52.150;4.466;2023-11-19T11:53:20;24.67;;;4.47;;
66272;SDS011;58450;52.150;4.466;2023-11-19T11:55:53;24.25;;;4.97;;
66272;SDS011;58450;52.150;4.466;2023-11-19T11:58:35;21.83;;;4.45;;
66272;SDS011;58450;52.150;4.466;2023-11-19T12:01:04;31.10;;;4.78;;
66272;SDS011;58450;52.150;4.466;2023-11-19T12:03:35;19.92;;;4.38;;
66272;SDS011;58450;52.150;4.466;2023-11-19T12:06:04;23.75;;;4.38;;
66272;SDS011;58450;52.150;4.466;2023-11-19T12:08:35;26.92;;;4.80;;
66272;SDS011;58450;52.150;4.466;2023-11-19T12:11:02;22.30;;;4.63;;
66272;SDS011;58450;52.150;4.466;2023-11-19T12:16:28;18.52;;;3.85;;
66272;SDS011;58450;52.150;4.466;2023-11-19T12:18:56;22.30;;;4.57;;
66272;SDS011;58450;52.150;4.466;2023-11-19T12:21:31;22.95;;;4.30;;
66272;SDS011;58450;52.150;4.466;2023-11-19T12:24:00;26.90;;;4.43;;
66272;SDS011;58450;52.150;4.466;2023-11-19T12:26:33;28.25;;;4.93;;
66272;SDS011;58450;52.150;4.466;2023-11-19T12:29:01;25.33;;;4.43;;
66272;SDS011;58450;52.150;4.466;2023-11-19T12:31:32;31.67;;;4.93;;
66272;SDS011;58450;52.150;4.466;2023-11-19T12:34:05;24.48;;;4.35;;
66272;SDS011;58450;52.150;4.466;2023-11-19T12:36:33;31.40;;;5.18;;
66272;SDS011;58450;52.150;4.466;2023-11-19T12:39:03;27.33;;;5.20;;
66272;SDS011;58450;52.150;4.466;2023-11-19T12:41:30;31.52;;;5.32;;
66272;SDS011;58450;52.150;4.466;2023-11-19T12:44:08;31.10;;;6.22;;
66272;SDS011;58450;52.150;4.466;2023-11-19T12:46:36;26.88;;;5.22;;
66272;SDS011;58450;52.150;4.466;2023-11-19T12:49:03;30.58;;;5.13;;
66272;SDS011;58450;52.150;4.466;2023-11-19T12:51:31;22.20;;;5.13;;
66272;SDS011;58450;52.150;4.466;2023-11-19T12:53:59;25.10;;;4.50;;
66272;SDS011;58450;52.150;4.466;2023-11-19T12:56:27;31.08;;;5.38;;
66272;SDS011;58450;52.150;4.466;2023-11-19T12:58:55;28.25;;;5.25;;
66272;SDS011;58450;52.150;4.466;2023-11-19T13:01:22;25.90;;;5.38;;
66272;SDS011;58450;52.150;4.466;2023-11-19T13:03:50;33.78;;;5.88;;
66272;SDS011;58450;52.150;4.466;2023-11-19T13:06:17;29.40;;;5.85;;
66272;SDS011;58450;52.150;4.466;2023-11-19T13:08:47;27.10;;;5.28;;
66272;SDS011;58450;52.150;4.466;2023-11-19T13:11:19;26.48;;;4.13;;
66272;SDS011;58450;52.150;4.466;2023-11-19T13:13:59;26.05;;;4.95;;
66272;SDS011;58450;52.150;4.466;2023-11-19T13:16:28;23.63;;;4.80;;
66272;SDS011;58450;52.150;4.466;2023-11-19T13:18:55;25.30;;;5.43;;
66272;SDS011;58450;52.150;4.466;2023-11-19T13:21:23;24.98;;;5.00;;
66272;SDS011;58450;52.150;4.466;2023-11-19T13:23:51;27.50;;;5.18;;
66272;SDS011;58450;52.150;4.466;2023-11-19T13:26:18;23.33;;;4.75;;
66272;SDS011;58450;52.150;4.466;2023-11-19T13:28:47;26.20;;;4.57;;
66272;SDS011;58450;52.150;4.466;2023-11-19T13:31:14;23.65;;;4.40;;
66272;SDS011;58450;52.150;4.466;2023-11-19T13:33:41;20.67;;;4.57;;
66272;SDS011;58450;52.150;4.466;2023-11-19T13:36:09;21.13;;;4.00;;
66272;SDS011;58450;52.150;4.466;2023-11-19T13:38:36;26.35;;;4.57;;
66272;SDS011;58450;52.150;4.466;2023-11-19T13:41:05;22.90;;;5.13;;
66272;SDS011;58450;52.150;4.466;2023-11-19T13:43:32;27.35;;;4.47;;
66272;SDS011;58450;52.150;4.466;2023-11-19T13:46:00;25.42;;;3.95;;
66272;SDS011;58450;52.150;4.466;2023-11-19T13:48:28;27.23;;;4.85;;
66272;SDS011;58450;52.150;4.466;2023-11-19T13:50:55;23.85;;;4.75;;
66272;SDS011;58450;52.150;4.466;2023-11-19T13:53:23;23.45;;;4.40;;
66272;SDS011;58450;52.150;4.466;2023-11-19T13:55:50;24.77;;;4.43;;
66272;SDS011;58450;52.150;4.466;2023-11-19T13:58:18;27.65;;;4.15;;
66272;SDS011;58450;52.150;4.466;2023-11-19T14:00:45;29.05;;;5.28;;
66272;SDS011;58450;52.150;4.466;2023-11-19T14:03:14;25.27;;;4.03;;
66272;SDS011;58450;52.150;4.466;2023-11-19T14:05:41;30.83;;;4.53;;
66272;SDS011;58450;52.150;4.466;2023-11-19T14:08:08;32.67;;;5.47;;
66272;SDS011;58450;52.150;4.466;2023-11-19T14:10:38;26.95;;;4.03;;
66272;SDS011;58450;52.150;4.466;2023-11-19T14:13:06;26.33;;;4.43;;
66272;SDS011;58450;52.150;4.466;2023-11-19T14:15:33;29.50;;;5.00;;
66272;SDS011;58450;52.150;4.466;2023-11-19T14:18:00;27.13;;;4.53;;
66272;SDS011;58450;52.150;4.466;2023-11-19T14:20:29;32.90;;;5.72;;
66272;SDS011;58450;52.150;4.466;2023-11-19T14:22:57;32.63;;;3.90;;
66272;SDS011;58450;52.150;4.466;2023-11-19T14:25:24;30.10;;;4.10;;
66272;SDS011;58450;52.150;4.466;2023-11-19T14:27:51;23.67;;;4.07;;
66272;SDS011;58450;52.150;4.466;2023-11-19T14:30:18;25.33;;;4.43;;
66272;SDS011;58450;52.150;4.466;2023-11-19T14:32:45;29.67;;;4.18;;
66272;SDS011;58450;52.150;4.466;2023-11-19T14:35:14;26.25;;;4.75;;
66272;SDS011;58450;52.150;4.466;2023-11-19T14:37:42;19.13;;;3.53;;
66272;SDS011;58450;52.150;4.466;2023-11-19T14:40:10;26.20;;;4.70;;
66272;SDS011;58450;52.150;4.466;2023-11-19T14:42:37;28.33;;;4.43;;
66272;SDS011;58450;52.150;4.466;2023-11-19T14:45:06;20.60;;;3.75;;
66272;SDS011;58450;52.150;4.466;2023-11-19T14:47:37;23.20;;;3.72;;
66272;SDS011;58450;52.150;4.466;2023-11-19T14:50:05;21.73;;;4.28;;
66272;SDS011;58450;52.150;4.466;2023-11-19T14:52:34;26.50;;;4.28;;
66272;SDS011;58450;52.150;4.466;2023-11-19T14:55:03;25.15;;;3.97;;
66272;SDS011;58450;52.150;4.466;2023-11-19T14:57:31;32.25;;;4.65;;